createdAt,value
2018-11-20T00:00:25.931Z,99305.91
2018-11-20T00:01:17.583Z,99303.19
2018-11-20T00:02:06.222Z,99305.95
2018-11-20T00:02:59.948Z,99293.75
2018-11-20T00:03:54.221Z,99309.20
2018-11-20T00:04:48.487Z,99298.61
2018-11-20T00:05:36.723Z,99297.54
2018-11-20T00:06:30.981Z,99299.17
2018-11-20T00:07:17.322Z,99298.91
2018-11-20T00:08:11.363Z,99294.84
2018-11-20T00:09:10.422Z,99305.44
2018-11-20T00:10:04.080Z,99303.52
2018-11-20T00:10:57.950Z,99303.23
2018-11-20T00:11:51.615Z,99308.66
2018-11-20T00:12:45.670Z,99310.29
2018-11-20T00:13:30.003Z,99305.99
2018-11-20T00:14:14.605Z,99311.12
2018-11-20T00:15:08.752Z,99311.94
2018-11-20T00:16:02.475Z,99314.13
2018-11-20T00:16:46.929Z,99313.02
2018-11-20T00:17:41.186Z,99316.52
2018-11-20T00:18:35.263Z,99315.19
2018-11-20T00:19:21.465Z,99313.84
2018-11-20T00:20:15.417Z,99314.94
2018-11-20T00:21:03.125Z,99315.50
2018-11-20T00:21:56.998Z,99311.66
2018-11-20T00:22:43.243Z,99314.93
2018-11-20T00:23:36.921Z,99315.20
2018-11-20T00:24:24.752Z,99315.20
2018-11-20T00:25:19.937Z,99319.02
2018-11-20T00:26:07.472Z,99325.00
2018-11-20T00:27:01.311Z,99323.64
2018-11-20T00:27:55.598Z,99331.20
2018-11-20T00:28:51.584Z,99329.61
2018-11-20T00:29:45.985Z,99333.94
2018-11-20T00:30:39.851Z,99330.96
2018-11-20T00:31:35.052Z,99335.02
2018-11-20T00:32:24.153Z,99334.18
2018-11-20T00:33:18.163Z,99340.17
2018-11-20T00:34:03.091Z,99344.45
2018-11-20T00:34:56.867Z,99339.59
2018-11-20T00:35:50.725Z,99335.27
2018-11-20T00:36:44.791Z,99346.09
2018-11-20T00:37:36.684Z,99335.83
2018-11-20T00:38:30.471Z,99335.55
2018-11-20T00:39:20.365Z,99337.75
2018-11-20T00:40:03.776Z,99337.70
2018-11-20T00:40:49.926Z,99338.80
2018-11-20T00:41:46.228Z,99336.11
2018-11-20T00:42:40.132Z,99333.92
2018-11-20T00:43:34.181Z,99337.19
2018-11-20T00:44:23.768Z,99340.97
2018-11-20T00:45:17.810Z,99337.17
2018-11-20T00:46:12.303Z,99330.69
2018-11-20T00:47:04.339Z,99333.69
2018-11-20T00:47:57.963Z,99333.69
2018-11-20T00:48:51.837Z,99330.95
2018-11-20T00:49:47.216Z,99328.50
2018-11-20T00:50:40.976Z,99328.79
2018-11-20T00:51:36.072Z,99330.16
2018-11-20T00:52:30.156Z,99329.34
2018-11-20T00:53:24.597Z,99336.11
2018-11-20T00:54:16.037Z,99337.17
2018-11-20T00:55:04.574Z,99338.28
2018-11-20T00:56:25.113Z,99335.56
2018-11-20T00:57:11.651Z,99337.22
2018-11-20T00:58:05.303Z,99336.66
2018-11-20T00:58:58.962Z,99341.56
2018-11-20T00:59:46.809Z,99337.74
2018-11-20T01:00:31.283Z,99340.19
2018-11-20T01:01:26.923Z,99337.50
2018-11-20T01:02:19.195Z,99333.97
2018-11-20T01:03:05.255Z,99335.58
2018-11-20T01:03:52.727Z,99333.69
2018-11-20T01:04:51.117Z,99330.70
2018-11-20T01:05:39.694Z,99329.87
2018-11-20T01:06:33.712Z,99331.75
2018-11-20T01:07:30.850Z,99329.28
2018-11-20T01:08:18.386Z,99326.53
2018-11-20T01:09:15.481Z,99326.83
2018-11-20T01:10:02.814Z,99328.45
2018-11-20T01:10:56.273Z,99326.02
2018-11-20T01:11:47.961Z,99327.97
2018-11-20T01:12:41.750Z,99330.41
2018-11-20T01:13:30.753Z,99322.82
2018-11-20T01:14:24.561Z,99329.05
2018-11-20T01:15:19.432Z,99327.95
2018-11-20T01:16:13.517Z,99323.65
2018-11-20T01:17:07.369Z,99326.37
2018-11-20T01:17:54.173Z,99328.28
2018-11-20T01:18:46.832Z,99325.83
2018-11-20T01:19:40.431Z,99327.45
2018-11-20T01:20:36.264Z,99327.47
2018-11-20T01:21:32.791Z,99328.28
2018-11-20T01:22:25.566Z,99328.28
2018-11-20T01:23:19.293Z,99330.71
2018-11-20T01:24:05.987Z,99333.15
2018-11-20T01:24:53.913Z,99328.00
2018-11-20T01:25:45.039Z,99330.17
2018-11-20T01:26:39.164Z,99328.52
2018-11-20T01:27:33.448Z,99330.73
2018-11-20T01:28:17.670Z,99342.92
2018-11-20T01:29:11.136Z,99339.67
2018-11-20T01:30:04.674Z,99339.67
2018-11-20T01:30:58.254Z,99341.83
2018-11-20T01:31:51.671Z,99341.32
2018-11-20T01:32:50.264Z,99345.38
2018-11-20T01:33:45.246Z,99351.88
2018-11-20T01:34:41.618Z,99349.45
2018-11-20T01:35:33.078Z,99345.65
2018-11-20T01:36:28.478Z,99353.79
2018-11-20T01:37:14.200Z,99352.44
2018-11-20T01:38:09.725Z,99346.73
2018-11-20T01:38:55.080Z,99346.73
2018-11-20T01:39:48.427Z,99364.88
2018-11-20T01:40:42.810Z,99361.07
2018-11-20T01:41:36.435Z,99356.75
2018-11-20T01:42:29.949Z,99362.98
2018-11-20T01:43:26.245Z,99362.45
2018-11-20T01:44:22.792Z,99365.42
2018-11-20T01:45:19.113Z,99366.52
2018-11-20T01:46:06.000Z,99366.77
2018-11-20T01:46:59.983Z,99372.75
2018-11-20T01:47:57.125Z,99374.08
2018-11-20T01:48:51.491Z,99369.47
2018-11-20T01:49:45.562Z,99368.66
2018-11-20T01:50:35.363Z,99371.12
2018-11-20T01:51:33.402Z,99374.63
2018-11-20T01:52:28.942Z,99374.63
2018-11-20T01:53:22.538Z,99374.09
2018-11-20T01:54:09.659Z,99369.77
2018-11-20T01:55:04.728Z,99367.30
2018-11-20T01:55:58.847Z,99375.19
2018-11-20T01:56:45.236Z,99374.64
2018-11-20T01:57:39.168Z,99374.11
2018-11-20T01:58:29.940Z,99382.76
2018-11-20T01:59:15.218Z,99384.66
2018-11-20T02:00:09.691Z,99393.85
2018-11-20T02:01:03.965Z,99399.81
2018-11-20T02:01:56.585Z,99397.11
2018-11-20T02:02:46.164Z,99401.70
2018-11-20T02:03:40.005Z,99393.87
2018-11-20T02:04:33.874Z,99401.42
2018-11-20T02:05:22.335Z,99397.36
2018-11-20T02:06:18.635Z,99393.58
2018-11-20T02:07:17.208Z,99394.66
2018-11-20T02:08:10.978Z,99386.82
2018-11-20T02:09:04.642Z,99381.94
2018-11-20T02:09:49.871Z,99382.77
2018-11-20T02:10:43.943Z,99374.66
2018-11-20T02:11:39.653Z,99374.63
2018-11-20T02:12:38.017Z,99371.36
2018-11-20T02:14:06.715Z,99363.53
2018-11-20T02:15:00.775Z,99368.96
2018-11-20T02:15:55.288Z,99371.92
2018-11-20T02:16:52.602Z,99381.14
2018-11-20T02:17:54.022Z,99378.70
2018-11-20T02:18:52.386Z,99385.20
2018-11-20T02:19:48.005Z,99386.00
2018-11-20T02:20:37.688Z,99389.53
2018-11-20T02:21:31.529Z,99397.11
2018-11-20T02:22:18.220Z,99396.84
2018-11-20T02:23:11.559Z,99394.69
2018-11-20T02:23:58.770Z,99396.85
2018-11-20T02:24:55.086Z,99394.67
2018-11-20T02:25:43.994Z,99386.55
2018-11-20T02:26:34.300Z,99386.55
2018-11-20T02:27:21.939Z,99388.44
2018-11-20T02:28:15.386Z,99390.08
2018-11-20T02:29:12.224Z,99391.41
2018-11-20T02:30:05.797Z,99395.20
2018-11-20T02:31:00.263Z,99391.39
2018-11-20T02:31:55.529Z,99388.43
2018-11-20T02:32:52.020Z,99390.63
2018-11-20T02:33:40.507Z,99391.41
2018-11-20T02:34:34.471Z,99401.16
2018-11-20T02:35:28.546Z,99403.07
2018-11-20T02:36:22.406Z,99399.28
2018-11-20T02:37:19.226Z,99404.42
2018-11-20T02:38:12.997Z,99387.08
2018-11-20T02:39:11.574Z,99387.08
2018-11-20T02:40:06.857Z,99407.41
2018-11-20T02:41:01.043Z,99403.88
2018-11-20T02:41:55.352Z,99406.05
2018-11-20T02:42:52.302Z,99400.91
2018-11-20T02:43:39.190Z,99412.00
2018-11-20T02:44:33.314Z,99414.70
2018-11-20T02:45:27.392Z,99414.70
2018-11-20T02:46:21.126Z,99410.12
2018-11-20T02:47:16.416Z,99423.40
2018-11-20T02:48:13.362Z,99420.69
2018-11-20T02:49:06.047Z,99418.25
2018-11-20T02:49:59.087Z,99417.41
2018-11-20T02:50:57.507Z,99421.75
2018-11-20T02:51:51.593Z,99421.75
2018-11-20T02:52:45.427Z,99421.75
2018-11-20T02:53:37.665Z,99428.27
2018-11-20T02:54:31.108Z,99427.16
2018-11-20T02:55:19.019Z,99433.39
2018-11-20T02:56:12.701Z,99440.98
2018-11-20T02:57:01.190Z,99435.55
2018-11-20T02:57:49.588Z,99420.39
2018-11-20T02:58:39.428Z,99428.27
2018-11-20T02:59:35.751Z,99429.06
2018-11-20T03:00:20.781Z,99422.84
2018-11-20T03:01:16.082Z,99419.31
2018-11-20T03:02:09.458Z,99421.48
2018-11-20T03:03:05.979Z,99431.78
2018-11-20T03:03:59.620Z,99433.94
2018-11-20T03:04:47.067Z,99430.16
2018-11-20T03:05:43.930Z,99432.58
2018-11-20T03:06:38.486Z,99438.00
2018-11-20T03:07:22.843Z,99441.25
2018-11-20T03:08:16.368Z,99437.73
2018-11-20T03:09:04.661Z,99440.71
2018-11-20T03:09:59.674Z,99440.98
2018-11-20T03:10:53.750Z,99446.12
2018-11-20T03:11:43.213Z,99448.00
2018-11-20T03:12:37.172Z,99439.35
2018-11-20T03:13:31.051Z,99442.60
2018-11-20T03:14:21.001Z,99431.75
2018-11-20T03:15:15.669Z,99446.39
2018-11-20T03:16:05.751Z,99446.39
2018-11-20T03:17:04.631Z,99448.83
2018-11-20T03:17:55.429Z,99450.97
2018-11-20T03:18:48.969Z,99447.19
2018-11-20T03:19:42.012Z,99447.19
2018-11-20T03:20:35.588Z,99455.34
2018-11-20T03:21:22.112Z,99457.47
2018-11-20T03:22:09.622Z,99450.17
2018-11-20T03:23:04.892Z,99455.81
2018-11-20T03:24:01.215Z,99455.81
2018-11-20T03:24:56.177Z,99460.41
2018-11-20T03:26:07.165Z,99452.58
2018-11-20T03:27:02.480Z,99452.58
2018-11-20T03:27:53.035Z,99454.77
2018-11-20T03:28:50.395Z,99461.00
2018-11-20T03:30:20.379Z,99458.25
2018-11-20T03:31:16.817Z,99458.25
2018-11-20T03:32:04.027Z,99461.50
2018-11-20T03:32:57.677Z,99461.50
2018-11-20T03:33:51.119Z,99451.73
2018-11-20T03:34:45.526Z,99451.73
2018-11-20T03:35:38.847Z,99448.22
2018-11-20T03:36:33.241Z,99448.22
2018-11-20T03:37:26.891Z,99462.00
2018-11-20T03:38:20.545Z,99462.00
2018-11-20T03:39:13.994Z,99453.05
2018-11-20T03:40:05.210Z,99450.92
2018-11-20T03:40:59.456Z,99457.11
2018-11-20T03:41:57.614Z,99461.20
2018-11-20T03:42:43.975Z,99464.72
2018-11-20T03:43:33.252Z,99459.31
2018-11-20T03:44:26.923Z,99464.47
2018-11-20T03:45:20.681Z,99459.64
2018-11-20T03:46:15.175Z,99459.33
2018-11-20T03:47:09.219Z,99459.33
2018-11-20T03:48:02.987Z,99462.02
2018-11-20T03:48:56.649Z,99459.58
2018-11-20T03:49:51.117Z,99457.98
2018-11-20T03:50:45.287Z,99453.91
2018-11-20T03:51:34.142Z,99459.05
2018-11-20T03:52:20.104Z,99459.05
2018-11-20T03:53:05.784Z,99453.08
2018-11-20T03:53:59.556Z,99453.08
2018-11-20T03:54:52.993Z,99454.16
2018-11-20T03:55:46.806Z,99459.87
2018-11-20T03:56:37.346Z,99455.26
2018-11-20T03:57:31.664Z,99462.02
2018-11-20T03:58:25.572Z,99463.12
2018-11-20T03:59:19.966Z,99463.12
2018-11-20T04:00:13.816Z,99469.31
2018-11-20T04:01:08.286Z,99474.98
2018-11-20T04:01:54.057Z,99478.23
2018-11-20T04:02:49.171Z,99476.59
2018-11-20T04:03:42.707Z,99485.55
2018-11-20T04:04:26.425Z,99485.55
2018-11-20T04:05:20.539Z,99479.59
2018-11-20T04:06:16.819Z,99484.45
2018-11-20T04:07:13.337Z,99484.45
2018-11-20T04:08:07.413Z,99470.92
2018-11-20T04:09:03.109Z,99470.92
2018-11-20T04:09:56.992Z,99464.99
2018-11-20T04:10:50.705Z,99464.99
2018-11-20T04:11:44.492Z,99463.89
2018-11-20T04:12:31.157Z,99463.89
2018-11-20T04:13:19.430Z,99461.23
2018-11-20T04:14:13.079Z,99462.02
2018-11-20T04:15:07.314Z,99456.58
2018-11-20T04:15:57.343Z,99470.67
2018-11-20T04:16:49.693Z,99466.35
2018-11-20T04:17:37.332Z,99466.35
2018-11-20T04:18:31.639Z,99469.12
2018-11-20T04:19:28.245Z,99474.52
2018-11-20T04:20:22.140Z,99470.93
2018-11-20T04:21:16.321Z,99470.93
2018-11-20T04:22:12.050Z,99470.10
2018-11-20T04:23:05.163Z,99472.27
2018-11-20T04:23:56.293Z,99470.65
2018-11-20T04:24:49.915Z,99470.65
2018-11-20T04:25:43.657Z,99469.80
2018-11-20T04:26:33.100Z,99469.80
2018-11-20T04:27:20.329Z,99466.58
2018-11-20T04:28:14.423Z,99459.27
2018-11-20T04:29:05.432Z,99459.27
2018-11-20T04:30:02.229Z,99470.08
2018-11-20T04:31:19.160Z,99462.48
2018-11-20T04:32:06.958Z,99474.42
2018-11-20T04:33:37.192Z,99465.74
2018-11-20T04:34:30.832Z,99464.63
2018-11-20T04:35:22.131Z,99461.13
2018-11-20T04:36:13.438Z,99473.30
2018-11-20T04:37:09.450Z,99472.50
2018-11-20T04:37:56.673Z,99473.59
2018-11-20T04:38:50.333Z,99476.81
2018-11-20T04:39:44.474Z,99483.56
2018-11-20T04:40:38.928Z,99480.35
2018-11-20T04:41:26.577Z,99478.98
2018-11-20T04:42:20.534Z,99467.09
2018-11-20T04:43:15.624Z,99482.54
2018-11-20T04:44:04.353Z,99482.54
2018-11-20T04:44:54.364Z,99483.06
2018-11-20T04:45:39.384Z,99480.35
2018-11-20T04:46:31.503Z,99480.35
2018-11-20T04:47:22.498Z,99491.70
2018-11-20T04:48:16.077Z,99483.94
2018-11-20T04:49:15.041Z,99480.09
2018-11-20T04:50:08.709Z,99489.55
2018-11-20T04:51:04.408Z,99490.11
2018-11-20T04:51:58.271Z,99492.00
2018-11-20T04:52:43.024Z,99492.02
2018-11-20T04:53:39.059Z,99492.02
2018-11-20T04:54:32.514Z,99485.81
2018-11-20T04:55:24.078Z,99485.81
2018-11-20T04:56:17.753Z,99494.16
2018-11-20T04:57:11.803Z,99494.16
2018-11-20T04:58:05.682Z,99495.25
2018-11-20T04:58:59.468Z,99506.56
2018-11-20T04:59:48.881Z,99506.56
2018-11-20T05:00:42.349Z,99498.77
2018-11-20T05:01:37.866Z,99498.77
2018-11-20T05:02:26.373Z,99496.28
2018-11-20T05:03:20.051Z,99494.64
2018-11-20T05:04:14.047Z,99482.75
2018-11-20T05:05:02.127Z,99482.75
2018-11-20T05:05:49.525Z,99488.70
2018-11-20T05:06:48.225Z,99488.19
2018-11-20T05:07:41.795Z,99490.31
2018-11-20T05:08:35.344Z,99490.31
2018-11-20T05:09:30.496Z,99490.87
2018-11-20T05:10:20.956Z,99498.51
2018-11-20T05:11:09.862Z,99495.50
2018-11-20T05:12:03.752Z,99495.50
2018-11-20T05:12:57.574Z,99499.27
2018-11-20T05:13:51.741Z,99498.74
2018-11-20T05:14:46.024Z,99503.55
2018-11-20T05:15:39.577Z,99503.04
2018-11-20T05:16:33.131Z,99507.63
2018-11-20T05:17:27.096Z,99514.91
2018-11-20T05:18:21.031Z,99505.72
2018-11-20T05:19:17.701Z,99505.72
2018-11-20T05:20:14.859Z,99511.09
2018-11-20T05:21:08.903Z,99518.98
2018-11-20T05:22:02.154Z,99518.98
2018-11-20T05:22:47.533Z,99514.07
2018-11-20T05:23:41.465Z,99514.07
2018-11-20T05:24:25.414Z,99511.16
2018-11-20T05:25:19.157Z,99511.16
2018-11-20T05:26:07.475Z,99508.98
2018-11-20T05:27:01.983Z,99510.88
2018-11-20T05:27:54.366Z,99517.62
2018-11-20T05:28:48.260Z,99515.98
2018-11-20T05:29:45.159Z,99518.72
2018-11-20T05:30:39.081Z,99519.83
2018-11-20T05:31:32.621Z,99516.59
2018-11-20T05:32:28.408Z,99516.59
2018-11-20T05:33:25.353Z,99517.36
2018-11-20T05:34:14.701Z,99515.69
2018-11-20T05:35:08.274Z,99515.69
2018-11-20T05:36:09.595Z,99531.68
2018-11-20T05:37:03.965Z,99526.85
2018-11-20T05:37:48.226Z,99518.45
2018-11-20T05:38:38.489Z,99518.45
2018-11-20T05:39:23.528Z,99518.98
2018-11-20T05:40:14.082Z,99517.67
2018-11-20T05:41:07.991Z,99513.57
2018-11-20T05:41:59.602Z,99521.66
2018-11-20T05:42:49.087Z,99515.50
2018-11-20T05:43:43.037Z,99522.88
2018-11-20T05:44:36.698Z,99522.88
2018-11-20T05:45:26.322Z,99528.78
2018-11-20T05:46:13.035Z,99524.44
2018-11-20T05:47:06.808Z,99524.66
2018-11-20T05:48:00.665Z,99525.77
2018-11-20T05:48:52.610Z,99525.77
2018-11-20T05:49:42.559Z,99519.51
2018-11-20T05:50:36.106Z,99519.51
2018-11-20T05:51:20.589Z,99523.54
2018-11-20T05:52:14.013Z,99528.13
2018-11-20T05:53:00.390Z,99528.13
2018-11-20T05:53:55.902Z,99524.59
2018-11-20T05:54:49.762Z,99526.47
2018-11-20T05:55:43.509Z,99525.09
2018-11-20T05:56:29.809Z,99525.09
2018-11-20T05:57:24.038Z,99528.89
2018-11-20T05:58:17.897Z,99522.88
2018-11-20T05:59:03.751Z,99522.95
2018-11-20T05:59:59.503Z,99527.50
2018-11-20T06:00:53.591Z,99528.59
2018-11-20T06:01:47.754Z,99529.11
2018-11-20T06:02:41.504Z,99527.96
2018-11-20T06:03:35.569Z,99531.23
2018-11-20T06:04:29.810Z,99531.72
2018-11-20T06:05:23.999Z,99534.91
2018-11-20T06:06:17.381Z,99531.45
2018-11-20T06:07:05.614Z,99537.61
2018-11-20T06:07:59.762Z,99537.61
2018-11-20T06:08:53.216Z,99538.96
2018-11-20T06:09:46.768Z,99542.19
2018-11-20T06:10:40.827Z,99544.63
2018-11-20T06:11:34.724Z,99540.80
2018-11-20T06:12:29.090Z,99542.75
2018-11-20T06:13:22.743Z,99547.86
2018-11-20T06:14:13.785Z,99552.22
2018-11-20T06:15:07.606Z,99550.64
2018-11-20T06:16:01.869Z,99548.98
2018-11-20T06:16:55.512Z,99548.98
2018-11-20T06:17:49.274Z,99548.08
2018-11-20T06:18:43.279Z,99539.19
2018-11-20T06:19:33.700Z,99540.84
2018-11-20T06:20:24.848Z,99540.84
2018-11-20T06:21:18.705Z,99546.28
2018-11-20T06:22:12.767Z,99546.28
2018-11-20T06:23:06.983Z,99545.23
2018-11-20T06:23:51.748Z,99545.23
2018-11-20T06:24:45.669Z,99545.42
2018-11-20T06:25:40.226Z,99545.42
2018-11-20T06:26:34.507Z,99548.38
2018-11-20T06:27:28.156Z,99541.33
2018-11-20T06:28:22.460Z,99542.79
2018-11-20T06:29:08.833Z,99542.79
2018-11-20T06:30:04.415Z,99544.37
2018-11-20T06:30:58.070Z,99544.37
2018-11-20T06:31:51.856Z,99545.38
2018-11-20T06:32:46.013Z,99545.38
2018-11-20T06:33:39.866Z,99545.68
2018-11-20T06:34:28.160Z,99544.59
2018-11-20T06:35:16.987Z,99542.98
2018-11-20T06:36:12.633Z,99545.98
2018-11-20T06:37:06.095Z,99546.47
2018-11-20T06:38:01.297Z,99546.47
2018-11-20T06:38:55.048Z,99544.55
2018-11-20T06:39:49.532Z,99552.66
2018-11-20T06:40:43.655Z,99552.66
2018-11-20T06:41:40.533Z,99550.69
2018-11-20T06:42:35.197Z,99552.31
2018-11-20T06:43:29.265Z,99552.31
2018-11-20T06:44:24.568Z,99552.56
2018-11-20T06:45:18.974Z,99556.92
2018-11-20T06:46:12.499Z,99548.52
2018-11-20T06:47:06.777Z,99563.16
2018-11-20T06:48:00.855Z,99553.56
2018-11-20T06:48:54.018Z,99553.56
2018-11-20T06:49:45.788Z,99554.86
2018-11-20T06:50:39.253Z,99564.63
2018-11-20T06:51:26.249Z,99563.84
2018-11-20T06:52:21.985Z,99568.17
2018-11-20T06:53:16.006Z,99569.55
2018-11-20T06:54:09.274Z,99564.72
2018-11-20T06:54:58.087Z,99564.45
2018-11-20T06:55:53.412Z,99567.91
2018-11-20T06:56:47.171Z,99558.92
2018-11-20T06:57:43.783Z,99560.27
2018-11-20T06:58:37.652Z,99566.81
2018-11-20T06:59:31.219Z,99566.81
2018-11-20T07:00:29.999Z,99565.41
2018-11-20T07:01:23.720Z,99565.25
2018-11-20T07:02:15.891Z,99562.80
2018-11-20T07:03:12.322Z,99570.12
2018-11-20T07:04:00.542Z,99568.34
2018-11-20T07:04:57.461Z,99565.55
2018-11-20T07:05:45.704Z,99568.78
2018-11-20T07:06:39.249Z,99565.34
2018-11-20T07:07:33.364Z,99561.55
2018-11-20T07:08:30.029Z,99558.06
2018-11-20T07:09:25.335Z,99559.23
2018-11-20T07:10:14.701Z,99564.41
2018-11-20T07:11:00.624Z,99561.80
2018-11-20T07:11:54.763Z,99560.67
2018-11-20T07:12:48.905Z,99560.16
2018-11-20T07:13:45.641Z,99552.56
2018-11-20T07:14:42.983Z,99552.56
2018-11-20T07:15:37.033Z,99558.02
2018-11-20T07:16:53.124Z,99562.23
2018-11-20T07:17:40.955Z,99560.06
2018-11-20T07:18:34.393Z,99558.89
2018-11-20T07:19:26.489Z,99561.37
2018-11-20T07:20:21.099Z,99566.38
2018-11-20T07:21:06.729Z,99571.48
2018-11-20T07:22:06.467Z,99565.77
2018-11-20T07:23:00.949Z,99564.16
2018-11-20T07:23:50.235Z,99567.95
2018-11-20T07:24:43.920Z,99564.45
2018-11-20T07:25:37.521Z,99563.50
2018-11-20T07:26:31.824Z,99564.58
2018-11-20T07:27:27.406Z,99562.66
2018-11-20T07:28:21.039Z,99562.41
2018-11-20T07:29:14.821Z,99566.71
2018-11-20T07:30:11.545Z,99565.05
2018-11-20T07:31:05.422Z,99562.56
2018-11-20T07:31:59.074Z,99557.77
2018-11-20T07:32:47.068Z,99568.27
2018-11-20T07:33:39.046Z,99568.99
2018-11-20T07:34:32.874Z,99567.37
2018-11-20T07:35:21.073Z,99565.78
2018-11-20T07:36:20.178Z,99576.36
2018-11-20T07:37:13.257Z,99574.20
2018-11-20T07:38:07.094Z,99574.20
2018-11-20T07:39:01.375Z,99573.66
2018-11-20T07:39:57.047Z,99575.06
2018-11-20T07:40:50.318Z,99580.89
2018-11-20T07:41:46.772Z,99581.47
2018-11-20T07:42:40.079Z,99583.90
2018-11-20T07:43:34.416Z,99588.16
2018-11-20T07:44:32.924Z,99580.41
2018-11-20T07:45:28.676Z,99581.25
2018-11-20T07:46:22.844Z,99582.81
2018-11-20T07:47:09.098Z,99580.41
2018-11-20T07:48:05.712Z,99580.41
2018-11-20T07:48:59.725Z,99589.36
2018-11-20T07:49:53.693Z,99586.14
2018-11-20T07:50:47.909Z,99584.46
2018-11-20T07:51:42.090Z,99578.29
2018-11-20T07:52:35.330Z,99590.95
2018-11-20T07:53:31.960Z,99584.73
2018-11-20T07:54:30.541Z,99589.05
2018-11-20T07:55:25.131Z,99589.05
2018-11-20T07:56:19.205Z,99585.50
2018-11-20T07:57:12.731Z,99585.45
2018-11-20T07:58:11.707Z,99589.72
2018-11-20T07:59:05.687Z,99588.16
2018-11-20T07:59:59.539Z,99590.25
2018-11-20T08:00:53.711Z,99590.33
2018-11-20T08:01:47.382Z,99589.77
2018-11-20T08:02:42.570Z,99590.50
2018-11-20T08:03:41.444Z,99593.41
2018-11-20T08:04:37.611Z,99592.88
2018-11-20T08:05:34.298Z,99590.13
2018-11-20T08:06:30.716Z,99589.94
2018-11-20T08:07:24.582Z,99594.80
2018-11-20T08:08:18.569Z,99596.16
2018-11-20T08:09:03.999Z,99595.07
2018-11-20T08:09:57.657Z,99592.89
2018-11-20T08:10:51.521Z,99594.30
2018-11-20T08:11:37.811Z,99599.69
2018-11-20T08:12:22.204Z,99596.16
2018-11-20T08:13:15.793Z,99595.11
2018-11-20T08:14:10.184Z,99596.20
2018-11-20T08:15:04.128Z,99597.77
2018-11-20T08:15:57.775Z,99600.20
2018-11-20T08:16:51.368Z,99598.54
2018-11-20T08:17:35.377Z,99594.38
2018-11-20T08:18:34.159Z,99600.34
2018-11-20T08:19:23.659Z,99595.77
2018-11-20T08:20:18.236Z,99598.48
2018-11-20T08:21:12.068Z,99599.30
2018-11-20T08:22:07.564Z,99592.84
2018-11-20T08:22:55.621Z,99594.95
2018-11-20T08:23:42.804Z,99598.47
2018-11-20T08:24:36.460Z,99594.44
2018-11-20T08:25:25.287Z,99593.91
2018-11-20T08:26:10.724Z,99600.22
2018-11-20T08:26:57.271Z,99601.23
2018-11-20T08:27:46.027Z,99606.66
2018-11-20T08:28:40.379Z,99605.66
2018-11-20T08:29:24.239Z,99601.82
2018-11-20T08:30:20.717Z,99599.30
2018-11-20T08:31:12.222Z,99604.15
2018-11-20T08:32:06.100Z,99597.19
2018-11-20T08:33:00.302Z,99594.81
2018-11-20T08:33:53.808Z,99599.39
2018-11-20T08:34:47.981Z,99600.41
2018-11-20T08:35:44.732Z,99601.70
2018-11-20T08:36:30.927Z,99600.14
2018-11-20T08:37:18.066Z,99603.05
2018-11-20T08:38:16.886Z,99604.34
2018-11-20T08:39:10.542Z,99600.14
2018-11-20T08:40:04.577Z,99607.88
2018-11-20T08:41:00.977Z,99606.59
2018-11-20T08:41:56.986Z,99602.00
2018-11-20T08:42:50.907Z,99607.34
2018-11-20T08:43:44.769Z,99607.41
2018-11-20T08:44:41.390Z,99611.72
2018-11-20T08:45:34.937Z,99612.35
2018-11-20T08:46:27.744Z,99611.98
2018-11-20T08:47:21.130Z,99609.20
2018-11-20T08:48:07.037Z,99609.73
2018-11-20T08:49:00.962Z,99611.84
2018-11-20T08:49:55.222Z,99605.66
2018-11-20T08:50:49.201Z,99612.35
2018-11-20T08:51:43.387Z,99615.51
2018-11-20T08:52:36.823Z,99612.80
2018-11-20T08:53:31.054Z,99608.31
2018-11-20T08:54:24.859Z,99610.74
2018-11-20T08:55:21.073Z,99613.95
2018-11-20T08:56:14.933Z,99612.87
2018-11-20T08:57:10.460Z,99613.23
2018-11-20T08:58:00.829Z,99619.75
2018-11-20T08:58:49.919Z,99620.05
2018-11-20T08:59:48.538Z,99614.60
2018-11-20T09:00:42.120Z,99618.97
2018-11-20T09:01:38.532Z,99614.48
2018-11-20T09:02:34.011Z,99616.67
2018-11-20T09:03:25.584Z,99613.91
2018-11-20T09:04:17.544Z,99619.37
2018-11-20T09:05:11.417Z,99618.02
2018-11-20T09:06:07.740Z,99618.34
2018-11-20T09:07:01.311Z,99620.78
2018-11-20T09:07:55.356Z,99622.64
2018-11-20T09:08:49.644Z,99623.98
2018-11-20T09:09:48.425Z,99621.61
2018-11-20T09:10:35.553Z,99623.43
2018-11-20T09:11:27.609Z,99622.89
2018-11-20T09:12:21.599Z,99622.89
2018-11-20T09:13:15.457Z,99623.69
2018-11-20T09:14:08.912Z,99620.14
2018-11-20T09:15:04.229Z,99623.35
2018-11-20T09:15:55.349Z,99621.50
2018-11-20T09:16:50.592Z,99627.02
2018-11-20T09:17:44.382Z,99615.56
2018-11-20T09:18:37.832Z,99621.03
2018-11-20T09:19:31.692Z,99623.69
2018-11-20T09:20:26.372Z,99620.66
2018-11-20T09:21:20.678Z,99622.66
2018-11-20T09:22:15.014Z,99624.77
2018-11-20T09:23:09.085Z,99628.63
2018-11-20T09:24:02.632Z,99622.94
2018-11-20T09:25:01.202Z,99631.98
2018-11-20T09:25:56.021Z,99623.22
2018-11-20T09:26:53.227Z,99626.56
2018-11-20T09:27:47.336Z,99627.13
2018-11-20T09:28:35.135Z,99628.22
2018-11-20T09:29:29.476Z,99625.20
2018-11-20T09:30:23.770Z,99627.00
2018-11-20T09:31:18.036Z,99630.64
2018-11-20T09:32:09.242Z,99629.15
2018-11-20T09:33:02.694Z,99625.27
2018-11-20T09:33:48.359Z,99631.00
2018-11-20T09:34:45.236Z,99628.88
2018-11-20T09:35:41.492Z,99636.67
2018-11-20T09:36:31.817Z,99625.95
2018-11-20T09:37:28.522Z,99635.20
2018-11-20T09:38:22.164Z,99638.73
2018-11-20T09:39:15.831Z,99640.92
2018-11-20T09:40:48.799Z,99634.25
2018-11-20T09:41:42.462Z,99635.80
2018-11-20T09:42:36.544Z,99632.42
2018-11-20T09:43:30.404Z,99634.80
2018-11-20T09:44:40.768Z,99630.47
2018-11-20T09:45:46.794Z,99628.77
2018-11-20T09:46:40.671Z,99629.29
2018-11-20T09:47:34.728Z,99626.93
2018-11-20T09:48:25.351Z,99625.52
2018-11-20T09:49:19.301Z,99635.05
2018-11-20T09:50:04.833Z,99626.72
2018-11-20T09:50:58.171Z,99636.13
2018-11-20T09:51:49.237Z,99625.98
2018-11-20T09:52:39.648Z,99625.52
2018-11-20T09:53:32.910Z,99625.14
2018-11-20T09:54:28.304Z,99628.41
2018-11-20T09:55:22.199Z,99629.06
2018-11-20T09:56:17.004Z,99632.02
2018-11-20T09:57:10.827Z,99633.09
2018-11-20T09:58:06.506Z,99633.64
2018-11-20T09:59:00.403Z,99631.62
2018-11-20T09:59:54.742Z,99631.12
2018-11-20T10:00:47.097Z,99634.34
2018-11-20T10:01:41.526Z,99629.80
2018-11-20T10:02:36.947Z,99629.99
2018-11-20T10:03:26.083Z,99628.46
2018-11-20T10:04:19.462Z,99634.11
2018-11-20T10:05:08.904Z,99637.28
2018-11-20T10:05:59.212Z,99634.47
2018-11-20T10:06:53.264Z,99637.28
2018-11-20T10:07:42.625Z,99640.50
2018-11-20T10:08:36.292Z,99645.85
2018-11-20T10:09:33.523Z,99645.01
2018-11-20T10:10:28.325Z,99642.98
2018-11-20T10:11:20.731Z,99641.36
2018-11-20T10:12:09.451Z,99648.60
2018-11-20T10:13:05.620Z,99647.08
2018-11-20T10:13:59.790Z,99650.03
2018-11-20T10:14:53.738Z,99649.29
2018-11-20T10:15:47.073Z,99651.92
2018-11-20T10:16:40.636Z,99651.55
2018-11-20T10:17:34.700Z,99649.88
2018-11-20T10:18:33.076Z,99656.77
2018-11-20T10:19:23.020Z,99654.83
2018-11-20T10:20:13.205Z,99652.48
2018-11-20T10:21:07.070Z,99650.08
2018-11-20T10:22:01.145Z,99662.34
2018-11-20T10:22:55.214Z,99655.59
2018-11-20T10:23:48.845Z,99664.22
2018-11-20T10:24:42.364Z,99664.77
2018-11-20T10:25:36.043Z,99671.54